Airfield :
LOGIN :

Register | Disclaimer

   EN    FR    IT 

 










Legend :    VFR   Marginal VFR   IFR   Intensive IFR   Very Intensive IFR
Visi :
Ceiling :
>= 8 km
>= 3000ft
5 to 8 km
1000 to 3000 ft
1500m to 5 km
500 to 1000 ft
800 to 1500m
200 to 500 ft
< 800m
< 200 ft
Symbols :   Thunderstorms  Fog  Heavy snow  Heavy precipitations  Wind > 20 kt
SIGMETs :     Misc.  Thunderstorms  Icing  Turbulence  Mountain Waves  Volcanic Ashes






- Airport Elevation : 1363 ft


ETIC - Grafenwohr Army Air Field

CURRENT METAR :
  • 120756Z AUTO 12004KT 9999 CLR 26/17 A3008 RMK AO2 SLP167 T02570165 $

EXPIRED METARs :
  • 120656Z AUTO 00000KT 9999 CLR 22/17 A3008 RMK AO2 SLP169 T02160172 $
  • 120556Z AUTO 00000KT 9999 CLR 18/17 A3008 RMK AO2 SLP170 T01750167 10181 20147 51007 $

TAF TAF ETIC
Valid from the 12 at 02:00 until the 13 at 08:00 UTC


120200Z 1202/1308 VRB06KT 9999 FEW040 QNH3006INS
TEMPO 1203/1206 6000 BR
TEMPO 1204/1205 2400 BR
BECMG 1210/1211 11010KT 9999 SCT070 QNH3004INS TX31/1212Z TN14/1203Z



MET'MAP, your aeronautical weather chart ! - Copyright ORBIFLY December 2007 - Disclaimer

ORBIFLY MET'MAP TEAM :

Programming & Development : Alexandra Zaïnal
Concept & original design : Baudouin d'Aumeries
Assistance for programming : Marc-Olivier Méhu
Technical & hardware support : Manuel Goepfert

Contact : metmap@orbifly.com




SOURCES & CREDITS :

   NOAA